Terminal Aerodrome Forecast
Issued by NWS

Home | Current Version | Previous Version | Text Only | Print | Product List | Glossary On
Versions: 1 2 3 4 5 6 7 8 9 10 11 12 13 14 15 16 17 18 19
000
FTUS44 KLIX 191738
TAFMCB
TAF
KMCB 191738Z 1918/2018 11005KT P6SM SCT110
     FM200600 VRB03KT 1SM BR BKN050
     FM200900 VRB03KT 1/4SM FG BKN002
     FM201400 13004KT P6SM BKN020
     FM201600 14007KT P6SM SCT120=

USA.gov is the U.S. government's official web portal to all federal, state and local government web resources and services.